Pagina principale
METAR-TAF:

METAR-TAF

Aeroporti :

Aeroporto di Erevan

Yerevan, Armenia

latitudine: 40-08-50N, longitudine: 044-23-45E, altezza: 865 m

Osservazione

Il bollettino è stato emesso 42 minuti fa, alle 06:30 UTC
Vento 1 kt da direzioni variabili
Temperature 28°C
Umidità 30%
Pressione 1011 hPa
Visibilità 10 km o più

METAR: UDYZ 200630Z VRB01KT 9999 NSC 28/09 Q1011 R09/000070 NOSIG

Ora: 11:12 (07:12 UTC)

Previsione

Il bollettino è stato emesso 2 ore e 6 minuti fa, alle 05:06 UTC
Previsione valida dal 20 alle 06 UTC al 21 alle 06 UTC
Vento 6 kt da sud/sud-ovest
Visibilità 10 km o più
Nubi sparse ad un'altezza di 4000 ft
Nuvoloso ad un'altezza di 10000 ft
Temporaneamente
dal 20 alle 09 UTC al 20 alle 21 UTC
Vento 16 kt da direzioni variabili con raffiche fino a 26 kt
Nuvoloso ad un'altezza di 3000 ft, Cumulonembo.
temporale, pioggia debole

TAF: UDYZ 200506Z 2006/2106 20006KT 9999 SCT040 BKN100 TEMPO 2009/2021 VRB16G26KT -TSRA BKN030CB

Osservazioni e previsioni meteorologiche di più di 4000 aeroporti (messaggi METAR e TAF).

Le stazioni disponibili sono rappresentate dai dischi gialli e rossi sulla carta.

Puntare il mouse per vedere il nome della stazione.

Clicca sopra per visualizzare le osservazioni e previsioni meteorologiche.

Per cambiare la mappa : fare clic sui pulsanti verdi con una croce nera per ingrandire, il pulsante verde con un trattino per diminuire, o sulla freccia verde per le mappe adiacenti.


METAR-TAF: